Palmyra, North Carolina
Current Conditions -  °F | °C
As of 8:35 PM on Friday 24 Oct 2014 (Local Time) from KETC Reporting Station
Clear Clear  
Wind Chill: 51°   Ceiling: Unl
Heat Index: 51°   Visibility: 10mi
Dew Point: 50°   Wind: 0mph
Humidity: 95%   Direction: NA
Pressure: 29.98"   Gusts: NA
Location:  36.07°N, 77.34°W
Report Text: KETC 250035Z AUTO 00000KT 10SM CLR 11/10 A2998 RMK AO2 T01050098
Loading
Personal Weather Stations






























Interactive Weather Map
Tropical Storm Tracking
New forecast layout! Learn more

10-Day Weather Forecast

Advertisements
Track Severe Weather on mobile